sensor_id;sensor_type;location;lat;lon;timestamp;P1;durP1;ratioP1;P2;durP2;ratioP2
66421;SDS011;53228;51.380;0.098;2023-12-22T00:01:35;11.98;;;1.85;;
66421;SDS011;53228;51.380;0.098;2023-12-22T00:04:03;8.50;;;1.75;;
66421;SDS011;53228;51.380;0.098;2023-12-22T00:06:34;10.30;;;1.40;;
66421;SDS011;53228;51.380;0.098;2023-12-22T00:09:02;16.27;;;1.63;;
66421;SDS011;53228;51.380;0.098;2023-12-22T00:11:30;10.10;;;2.00;;
66421;SDS011;53228;51.380;0.098;2023-12-22T00:13:57;16.45;;;2.03;;
66421;SDS011;53228;51.380;0.098;2023-12-22T00:16:25;9.23;;;1.65;;
66421;SDS011;53228;51.380;0.098;2023-12-22T00:18:53;8.02;;;1.55;;
66421;SDS011;53228;51.380;0.098;2023-12-22T00:21:21;12.85;;;1.90;;
66421;SDS011;53228;51.380;0.098;2023-12-22T00:23:49;15.27;;;1.92;;
66421;SDS011;53228;51.380;0.098;2023-12-22T00:26:17;4.97;;;1.00;;
66421;SDS011;53228;51.380;0.098;2023-12-22T00:28:44;7.65;;;1.02;;
66421;SDS011;53228;51.380;0.098;2023-12-22T00:31:12;10.63;;;1.73;;
66421;SDS011;53228;51.380;0.098;2023-12-22T00:33:40;5.88;;;1.10;;
66421;SDS011;53228;51.380;0.098;2023-12-22T00:36:08;12.85;;;2.03;;
66421;SDS011;53228;51.380;0.098;2023-12-22T00:38:36;8.88;;;1.45;;
66421;SDS011;53228;51.380;0.098;2023-12-22T00:41:03;8.55;;;1.20;;
66421;SDS011;53228;51.380;0.098;2023-12-22T00:43:31;7.85;;;1.15;;
66421;SDS011;53228;51.380;0.098;2023-12-22T00:45:59;8.52;;;1.40;;
66421;SDS011;53228;51.380;0.098;2023-12-22T00:48:26;8.35;;;0.93;;
66421;SDS011;53228;51.380;0.098;2023-12-22T00:50:55;5.78;;;1.23;;
66421;SDS011;53228;51.380;0.098;2023-12-22T00:53:23;6.13;;;0.88;;
66421;SDS011;53228;51.380;0.098;2023-12-22T00:55:51;6.70;;;0.88;;
66421;SDS011;53228;51.380;0.098;2023-12-22T00:58:18;3.25;;;0.90;;
66421;SDS011;53228;51.380;0.098;2023-12-22T01:00:46;8.00;;;1.23;;
66421;SDS011;53228;51.380;0.098;2023-12-22T01:03:14;3.67;;;1.00;;
66421;SDS011;53228;51.380;0.098;2023-12-22T01:05:42;4.07;;;1.08;;
66421;SDS011;53228;51.380;0.098;2023-12-22T01:08:10;3.00;;;0.70;;
66421;SDS011;53228;51.380;0.098;2023-12-22T01:10:37;4.20;;;0.77;;
66421;SDS011;53228;51.380;0.098;2023-12-22T01:13:05;4.18;;;0.90;;
66421;SDS011;53228;51.380;0.098;2023-12-22T01:15:33;1.73;;;0.43;;
66421;SDS011;53228;51.380;0.098;2023-12-22T01:18:01;5.38;;;0.80;;
66421;SDS011;53228;51.380;0.098;2023-12-22T01:20:28;2.47;;;0.63;;
66421;SDS011;53228;51.380;0.098;2023-12-22T01:22:56;0.65;;;0.38;;
66421;SDS011;53228;51.380;0.098;2023-12-22T01:25:24;0.88;;;0.30;;
66421;SDS011;53228;51.380;0.098;2023-12-22T01:27:52;0.50;;;0.35;;
66421;SDS011;53228;51.380;0.098;2023-12-22T01:30:19;3.22;;;0.28;;
66421;SDS011;53228;51.380;0.098;2023-12-22T01:32:47;1.83;;;0.25;;
66421;SDS011;53228;51.380;0.098;2023-12-22T01:35:15;1.08;;;0.30;;
66421;SDS011;53228;51.380;0.098;2023-12-22T01:37:43;0.68;;;0.20;;
66421;SDS011;53228;51.380;0.098;2023-12-22T01:40:10;1.75;;;0.40;;
66421;SDS011;53228;51.380;0.098;2023-12-22T01:42:38;0.20;;;0.20;;
66421;SDS011;53228;51.380;0.098;2023-12-22T01:45:07;0.43;;;0.20;;
66421;SDS011;53228;51.380;0.098;2023-12-22T01:47:35;1.17;;;0.35;;
66421;SDS011;53228;51.380;0.098;2023-12-22T01:50:04;0.28;;;0.20;;
66421;SDS011;53228;51.380;0.098;2023-12-22T01:52:32;1.95;;;0.13;;
66421;SDS011;53228;51.380;0.098;2023-12-22T01:55:00;0.20;;;0.20;;
66421;SDS011;53228;51.380;0.098;2023-12-22T01:57:29;0.25;;;0.17;;
66421;SDS011;53228;51.380;0.098;2023-12-22T01:59:58;0.22;;;0.20;;
66421;SDS011;53228;51.380;0.098;2023-12-22T02:02:25;0.25;;;0.25;;
66421;SDS011;53228;51.380;0.098;2023-12-22T02:04:54;0.15;;;0.15;;
66421;SDS011;53228;51.380;0.098;2023-12-22T02:07:22;0.22;;;0.22;;
66421;SDS011;53228;51.380;0.098;2023-12-22T02:09:50;0.47;;;0.25;;
66421;SDS011;53228;51.380;0.098;2023-12-22T02:12:17;1.05;;;0.30;;
66421;SDS011;53228;51.380;0.098;2023-12-22T02:14:45;1.02;;;0.40;;
66421;SDS011;53228;51.380;0.098;2023-12-22T02:17:18;0.20;;;0.20;;
66421;SDS011;53228;51.380;0.098;2023-12-22T02:19:52;1.25;;;0.30;;
66421;SDS011;53228;51.380;0.098;2023-12-22T02:22:23;0.30;;;0.30;;
66421;SDS011;53228;51.380;0.098;2023-12-22T02:24:50;0.52;;;0.30;;
66421;SDS011;53228;51.380;0.098;2023-12-22T02:32:59;0.98;;;0.20;;
66421;SDS011;53228;51.380;0.098;2023-12-22T02:35:28;1.52;;;0.30;;
66421;SDS011;53228;51.380;0.098;2023-12-22T02:37:58;2.38;;;0.50;;
66421;SDS011;53228;51.380;0.098;2023-12-22T02:40:27;0.45;;;0.25;;
66421;SDS011;53228;51.380;0.098;2023-12-22T02:42:56;5.00;;;0.65;;
66421;SDS011;53228;51.380;0.098;2023-12-22T02:45:24;0.30;;;0.30;;
66421;SDS011;53228;51.380;0.098;2023-12-22T02:47:52;1.02;;;0.38;;
66421;SDS011;53228;51.380;0.098;2023-12-22T02:50:20;3.88;;;0.50;;
66421;SDS011;53228;51.380;0.098;2023-12-22T02:52:47;0.38;;;0.20;;
66421;SDS011;53228;51.380;0.098;2023-12-22T02:55:16;0.95;;;0.45;;
66421;SDS011;53228;51.380;0.098;2023-12-22T02:57:44;0.93;;;0.25;;
66421;SDS011;53228;51.380;0.098;2023-12-22T03:00:12;2.13;;;0.30;;
66421;SDS011;53228;51.380;0.098;2023-12-22T03:02:39;1.45;;;0.20;;
66421;SDS011;53228;51.380;0.098;2023-12-22T03:05:07;0.52;;;0.25;;
66421;SDS011;53228;51.380;0.098;2023-12-22T03:07:35;1.45;;;0.47;;
66421;SDS011;53228;51.380;0.098;2023-12-22T03:10:03;0.85;;;0.20;;
66421;SDS011;53228;51.380;0.098;2023-12-22T03:12:31;1.52;;;0.13;;
66421;SDS011;53228;51.380;0.098;2023-12-22T03:14:58;3.05;;;0.50;;
66421;SDS011;53228;51.380;0.098;2023-12-22T03:17:26;4.95;;;0.55;;
66421;SDS011;53228;51.380;0.098;2023-12-22T03:19:53;3.47;;;0.32;;
66421;SDS011;53228;51.380;0.098;2023-12-22T03:22:21;4.72;;;0.35;;
66421;SDS011;53228;51.380;0.098;2023-12-22T03:24:49;4.53;;;0.85;;
66421;SDS011;53228;51.380;0.098;2023-12-22T03:27:17;2.50;;;0.50;;
66421;SDS011;53228;51.380;0.098;2023-12-22T03:29:45;3.13;;;0.45;;
66421;SDS011;53228;51.380;0.098;2023-12-22T03:32:12;4.28;;;0.50;;
66421;SDS011;53228;51.380;0.098;2023-12-22T03:34:40;0.47;;;0.40;;
66421;SDS011;53228;51.380;0.098;2023-12-22T03:37:08;2.83;;;0.25;;
66421;SDS011;53228;51.380;0.098;2023-12-22T03:39:36;0.43;;;0.35;;
66421;SDS011;53228;51.380;0.098;2023-12-22T03:42:04;0.47;;;0.20;;
66421;SDS011;53228;51.380;0.098;2023-12-22T03:44:31;1.23;;;0.32;;
66421;SDS011;53228;51.380;0.098;2023-12-22T03:46:59;3.53;;;0.32;;
66421;SDS011;53228;51.380;0.098;2023-12-22T03:49:27;1.50;;;0.47;;
66421;SDS011;53228;51.380;0.098;2023-12-22T03:51:54;2.35;;;0.45;;
66421;SDS011;53228;51.380;0.098;2023-12-22T03:54:22;3.45;;;0.45;;
66421;SDS011;53228;51.380;0.098;2023-12-22T03:56:50;0.95;;;0.40;;
66421;SDS011;53228;51.380;0.098;2023-12-22T03:59:17;7.35;;;0.77;;
66421;SDS011;53228;51.380;0.098;2023-12-22T04:01:50;5.15;;;0.28;;
66421;SDS011;53228;51.380;0.098;2023-12-22T04:04:22;1.10;;;0.20;;
66421;SDS011;53228;51.380;0.098;2023-12-22T04:06:50;3.97;;;0.50;;
66421;SDS011;53228;51.380;0.098;2023-12-22T04:09:18;2.33;;;0.32;;
66421;SDS011;53228;51.380;0.098;2023-12-22T04:11:46;3.35;;;0.20;;
66421;SDS011;53228;51.380;0.098;2023-12-22T04:14:14;1.02;;;0.20;;
66421;SDS011;53228;51.380;0.098;2023-12-22T04:16:42;4.65;;;0.40;;
66421;SDS011;53228;51.380;0.098;2023-12-22T04:19:09;3.70;;;0.35;;
66421;SDS011;53228;51.380;0.098;2023-12-22T04:21:38;6.88;;;0.40;;
66421;SDS011;53228;51.380;0.098;2023-12-22T04:24:06;2.45;;;0.20;;
66421;SDS011;53228;51.380;0.098;2023-12-22T04:26:34;2.70;;;0.22;;
66421;SDS011;53228;51.380;0.098;2023-12-22T04:29:01;7.50;;;0.55;;
66421;SDS011;53228;51.380;0.098;2023-12-22T04:31:29;4.50;;;0.40;;
66421;SDS011;53228;51.380;0.098;2023-12-22T04:33:57;1.08;;;0.30;;
66421;SDS011;53228;51.380;0.098;2023-12-22T04:36:25;1.58;;;0.77;;
66421;SDS011;53228;51.380;0.098;2023-12-22T04:38:52;1.58;;;0.40;;
66421;SDS011;53228;51.380;0.098;2023-12-22T04:41:20;1.50;;;0.20;;
66421;SDS011;53228;51.380;0.098;2023-12-22T04:43:48;2.53;;;0.20;;
66421;SDS011;53228;51.380;0.098;2023-12-22T04:46:15;2.03;;;0.30;;
66421;SDS011;53228;51.380;0.098;2023-12-22T04:48:43;1.38;;;0.22;;
66421;SDS011;53228;51.380;0.098;2023-12-22T04:51:11;2.17;;;0.30;;
66421;SDS011;53228;51.380;0.098;2023-12-22T04:53:39;5.90;;;0.50;;
66421;SDS011;53228;51.380;0.098;2023-12-22T04:56:07;0.40;;;0.20;;
66421;SDS011;53228;51.380;0.098;2023-12-22T04:58:34;2.45;;;0.32;;
66421;SDS011;53228;51.380;0.098;2023-12-22T05:01:02;1.83;;;0.20;;
66421;SDS011;53228;51.380;0.098;2023-12-22T05:03:30;0.45;;;0.10;;
66421;SDS011;53228;51.380;0.098;2023-12-22T05:05:58;3.35;;;0.43;;
66421;SDS011;53228;51.380;0.098;2023-12-22T05:08:26;1.42;;;0.30;;
66421;SDS011;53228;51.380;0.098;2023-12-22T05:10:53;0.77;;;0.20;;
66421;SDS011;53228;51.380;0.098;2023-12-22T05:13:21;1.92;;;0.60;;
66421;SDS011;53228;51.380;0.098;2023-12-22T05:15:49;0.82;;;0.32;;
66421;SDS011;53228;51.380;0.098;2023-12-22T05:18:16;0.15;;;0.10;;
66421;SDS011;53228;51.380;0.098;2023-12-22T05:20:44;5.72;;;0.45;;
66421;SDS011;53228;51.380;0.098;2023-12-22T05:23:12;0.73;;;0.30;;
66421;SDS011;53228;51.380;0.098;2023-12-22T05:25:39;2.70;;;0.68;;
66421;SDS011;53228;51.380;0.098;2023-12-22T05:28:07;0.10;;;0.10;;
66421;SDS011;53228;51.380;0.098;2023-12-22T05:30:35;3.38;;;0.30;;
66421;SDS011;53228;51.380;0.098;2023-12-22T05:33:03;3.33;;;0.65;;
66421;SDS011;53228;51.380;0.098;2023-12-22T05:35:31;0.55;;;0.10;;
66421;SDS011;53228;51.380;0.098;2023-12-22T05:37:59;2.65;;;0.40;;
66421;SDS011;53228;51.380;0.098;2023-12-22T05:40:26;1.65;;;0.32;;
66421;SDS011;53228;51.380;0.098;2023-12-22T05:42:54;3.22;;;0.30;;
66421;SDS011;53228;51.380;0.098;2023-12-22T05:45:22;1.15;;;0.30;;
66421;SDS011;53228;51.380;0.098;2023-12-22T05:47:53;1.13;;;0.10;;
66421;SDS011;53228;51.380;0.098;2023-12-22T05:50:21;2.47;;;0.30;;
66421;SDS011;53228;51.380;0.098;2023-12-22T05:52:49;1.10;;;0.45;;
66421;SDS011;53228;51.380;0.098;2023-12-22T05:55:17;1.08;;;0.30;;
66421;SDS011;53228;51.380;0.098;2023-12-22T05:57:44;4.47;;;0.68;;
66421;SDS011;53228;51.380;0.098;2023-12-22T06:00:13;0.63;;;0.10;;
66421;SDS011;53228;51.380;0.098;2023-12-22T06:02:42;2.83;;;0.65;;
66421;SDS011;53228;51.380;0.098;2023-12-22T06:05:10;1.70;;;0.40;;
66421;SDS011;53228;51.380;0.098;2023-12-22T06:07:38;0.35;;;0.17;;
66421;SDS011;53228;51.380;0.098;2023-12-22T06:10:06;1.20;;;0.30;;
66421;SDS011;53228;51.380;0.098;2023-12-22T06:12:36;2.55;;;0.30;;
66421;SDS011;53228;51.380;0.098;2023-12-22T06:15:04;4.00;;;0.40;;
66421;SDS011;53228;51.380;0.098;2023-12-22T06:17:32;1.65;;;0.43;;
66421;SDS011;53228;51.380;0.098;2023-12-22T06:20:00;1.77;;;0.43;;
66421;SDS011;53228;51.380;0.098;2023-12-22T06:22:28;2.88;;;0.50;;
66421;SDS011;53228;51.380;0.098;2023-12-22T06:24:56;3.95;;;1.20;;
66421;SDS011;53228;51.380;0.098;2023-12-22T06:27:23;7.50;;;0.70;;
66421;SDS011;53228;51.380;0.098;2023-12-22T06:29:52;4.10;;;0.57;;
66421;SDS011;53228;51.380;0.098;2023-12-22T06:32:20;5.88;;;0.75;;
66421;SDS011;53228;51.380;0.098;2023-12-22T06:34:47;4.18;;;0.75;;
66421;SDS011;53228;51.380;0.098;2023-12-22T06:37:15;2.22;;;0.55;;
66421;SDS011;53228;51.380;0.098;2023-12-22T06:39:43;8.50;;;0.82;;
66421;SDS011;53228;51.380;0.098;2023-12-22T06:42:11;1.27;;;0.55;;
66421;SDS011;53228;51.380;0.098;2023-12-22T06:44:42;4.95;;;0.60;;
66421;SDS011;53228;51.380;0.098;2023-12-22T06:47:13;2.75;;;0.93;;
66421;SDS011;53228;51.380;0.098;2023-12-22T06:49:40;5.57;;;0.68;;
66421;SDS011;53228;51.380;0.098;2023-12-22T06:52:08;6.63;;;0.73;;
66421;SDS011;53228;51.380;0.098;2023-12-22T06:54:36;3.85;;;0.60;;
66421;SDS011;53228;51.380;0.098;2023-12-22T06:57:04;7.95;;;0.68;;
66421;SDS011;53228;51.380;0.098;2023-12-22T06:59:33;6.72;;;0.80;;
66421;SDS011;53228;51.380;0.098;2023-12-22T07:02:01;2.03;;;0.50;;
66421;SDS011;53228;51.380;0.098;2023-12-22T07:07:50;7.55;;;0.75;;
66421;SDS011;53228;51.380;0.098;2023-12-22T07:10:18;7.40;;;1.17;;
66421;SDS011;53228;51.380;0.098;2023-12-22T07:12:46;10.18;;;1.08;;
66421;SDS011;53228;51.380;0.098;2023-12-22T07:15:13;5.60;;;1.35;;
66421;SDS011;53228;51.380;0.098;2023-12-22T07:17:41;5.00;;;0.70;;
66421;SDS011;53228;51.380;0.098;2023-12-22T07:20:09;6.85;;;0.75;;
66421;SDS011;53228;51.380;0.098;2023-12-22T07:22:37;7.88;;;1.10;;
66421;SDS011;53228;51.380;0.098;2023-12-22T07:25:06;2.47;;;0.55;;
66421;SDS011;53228;51.380;0.098;2023-12-22T07:27:35;5.10;;;0.75;;
66421;SDS011;53228;51.380;0.098;2023-12-22T07:30:03;3.85;;;0.85;;
66421;SDS011;53228;51.380;0.098;2023-12-22T07:32:33;4.80;;;0.80;;
66421;SDS011;53228;51.380;0.098;2023-12-22T07:35:01;1.58;;;0.68;;
66421;SDS011;53228;51.380;0.098;2023-12-22T07:37:29;8.77;;;1.23;;
66421;SDS011;53228;51.380;0.098;2023-12-22T07:39:57;8.30;;;0.70;;
66421;SDS011;53228;51.380;0.098;2023-12-22T07:42:25;8.98;;;1.15;;
66421;SDS011;53228;51.380;0.098;2023-12-22T07:44:54;16.15;;;1.30;;
66421;SDS011;53228;51.380;0.098;2023-12-22T07:47:23;5.93;;;0.80;;
66421;SDS011;53228;51.380;0.098;2023-12-22T07:49:51;4.25;;;0.75;;
66421;SDS011;53228;51.380;0.098;2023-12-22T07:52:19;3.47;;;0.60;;
66421;SDS011;53228;51.380;0.098;2023-12-22T07:54:47;6.40;;;1.05;;
66421;SDS011;53228;51.380;0.098;2023-12-22T07:57:15;6.47;;;0.95;;
66421;SDS011;53228;51.380;0.098;2023-12-22T07:59:43;2.88;;;0.60;;
66421;SDS011;53228;51.380;0.098;2023-12-22T08:02:10;3.70;;;0.85;;
66421;SDS011;53228;51.380;0.098;2023-12-22T08:04:39;3.65;;;0.30;;
66421;SDS011;53228;51.380;0.098;2023-12-22T08:07:08;8.05;;;0.60;;
66421;SDS011;53228;51.380;0.098;2023-12-22T08:09:36;3.97;;;0.50;;
66421;SDS011;53228;51.380;0.098;2023-12-22T08:12:03;3.38;;;0.55;;
66421;SDS011;53228;51.380;0.098;2023-12-22T08:14:31;4.75;;;1.17;;
66421;SDS011;53228;51.380;0.098;2023-12-22T08:16:59;5.85;;;1.15;;
66421;SDS011;53228;51.380;0.098;2023-12-22T08:19:27;6.13;;;1.05;;
66421;SDS011;53228;51.380;0.098;2023-12-22T08:21:58;7.05;;;1.42;;
66421;SDS011;53228;51.380;0.098;2023-12-22T08:24:31;4.30;;;0.85;;
66421;SDS011;53228;51.380;0.098;2023-12-22T08:26:58;8.50;;;1.05;;
66421;SDS011;53228;51.380;0.098;2023-12-22T08:29:26;2.92;;;0.63;;
66421;SDS011;53228;51.380;0.098;2023-12-22T08:31:54;5.45;;;1.27;;
66421;SDS011;53228;51.380;0.098;2023-12-22T08:34:22;7.22;;;0.95;;
66421;SDS011;53228;51.380;0.098;2023-12-22T08:36:49;5.43;;;0.63;;
66421;SDS011;53228;51.380;0.098;2023-12-22T08:39:17;4.57;;;1.13;;
66421;SDS011;53228;51.380;0.098;2023-12-22T08:41:45;5.03;;;0.70;;
66421;SDS011;53228;51.380;0.098;2023-12-22T08:44:13;3.10;;;1.27;;
66421;SDS011;53228;51.380;0.098;2023-12-22T08:46:42;2.17;;;0.50;;
66421;SDS011;53228;51.380;0.098;2023-12-22T08:49:10;1.60;;;0.38;;
66421;SDS011;53228;51.380;0.098;2023-12-22T08:51:38;4.03;;;0.47;;
66421;SDS011;53228;51.380;0.098;2023-12-22T08:54:06;3.95;;;0.52;;
66421;SDS011;53228;51.380;0.098;2023-12-22T08:56:33;3.53;;;0.40;;
66421;SDS011;53228;51.380;0.098;2023-12-22T08:59:02;2.00;;;0.30;;
66421;SDS011;53228;51.380;0.098;2023-12-22T09:01:30;5.72;;;0.70;;
66421;SDS011;53228;51.380;0.098;2023-12-22T09:03:58;1.50;;;0.55;;
66421;SDS011;53228;51.380;0.098;2023-12-22T09:06:26;3.88;;;0.52;;
66421;SDS011;53228;51.380;0.098;2023-12-22T09:08:53;5.70;;;0.65;;
66421;SDS011;53228;51.380;0.098;2023-12-22T09:11:21;2.45;;;0.60;;
66421;SDS011;53228;51.380;0.098;2023-12-22T09:13:49;5.85;;;0.70;;
66421;SDS011;53228;51.380;0.098;2023-12-22T09:16:20;4.25;;;0.63;;
66421;SDS011;53228;51.380;0.098;2023-12-22T09:18:49;3.58;;;0.22;;
66421;SDS011;53228;51.380;0.098;2023-12-22T09:21:17;2.90;;;0.30;;
66421;SDS011;53228;51.380;0.098;2023-12-22T09:23:45;3.13;;;0.40;;
66421;SDS011;53228;51.380;0.098;2023-12-22T09:26:14;4.70;;;0.52;;
66421;SDS011;53228;51.380;0.098;2023-12-22T09:28:42;3.20;;;0.55;;
66421;SDS011;53228;51.380;0.098;2023-12-22T09:31:10;0.50;;;0.40;;
66421;SDS011;53228;51.380;0.098;2023-12-22T09:33:40;10.10;;;0.75;;
66421;SDS011;53228;51.380;0.098;2023-12-22T09:36:08;4.95;;;1.38;;
66421;SDS011;53228;51.380;0.098;2023-12-22T09:38:37;5.72;;;1.05;;
66421;SDS011;53228;51.380;0.098;2023-12-22T09:41:05;7.63;;;0.90;;
66421;SDS011;53228;51.380;0.098;2023-12-22T09:43:34;3.83;;;0.70;;
66421;SDS011;53228;51.380;0.098;2023-12-22T09:46:04;7.10;;;0.60;;
66421;SDS011;53228;51.380;0.098;2023-12-22T09:48:33;3.97;;;0.40;;
66421;SDS011;53228;51.380;0.098;2023-12-22T09:53:32;1.48;;;0.47;;
66421;SDS011;53228;51.380;0.098;2023-12-22T09:56:02;7.55;;;0.77;;
66421;SDS011;53228;51.380;0.098;2023-12-22T09:58:31;4.90;;;1.38;;
66421;SDS011;53228;51.380;0.098;2023-12-22T10:01:02;1.83;;;0.43;;
66421;SDS011;53228;51.380;0.098;2023-12-22T10:03:33;3.10;;;0.75;;
66421;SDS011;53228;51.380;0.098;2023-12-22T10:06:02;4.32;;;0.77;;
66421;SDS011;53228;51.380;0.098;2023-12-22T10:08:30;2.80;;;0.60;;
66421;SDS011;53228;51.380;0.098;2023-12-22T10:10:59;2.38;;;0.35;;
66421;SDS011;53228;51.380;0.098;2023-12-22T10:13:27;4.10;;;0.40;;
66421;SDS011;53228;51.380;0.098;2023-12-22T10:15:55;4.97;;;0.70;;
66421;SDS011;53228;51.380;0.098;2023-12-22T10:18:24;5.63;;;0.70;;
66421;SDS011;53228;51.380;0.098;2023-12-22T10:20:52;7.55;;;0.82;;
66421;SDS011;53228;51.380;0.098;2023-12-22T10:23:20;3.92;;;1.13;;
66421;SDS011;53228;51.380;0.098;2023-12-22T10:25:47;6.10;;;0.63;;
66421;SDS011;53228;51.380;0.098;2023-12-22T10:28:16;1.95;;;0.40;;
66421;SDS011;53228;51.380;0.098;2023-12-22T10:30:44;4.72;;;0.70;;
66421;SDS011;53228;51.380;0.098;2023-12-22T10:33:13;2.47;;;0.77;;
66421;SDS011;53228;51.380;0.098;2023-12-22T10:35:41;4.13;;;0.50;;
66421;SDS011;53228;51.380;0.098;2023-12-22T10:38:09;1.75;;;0.28;;
66421;SDS011;53228;51.380;0.098;2023-12-22T10:40:37;2.08;;;0.75;;
66421;SDS011;53228;51.380;0.098;2023-12-22T10:43:05;3.58;;;0.93;;
66421;SDS011;53228;51.380;0.098;2023-12-22T10:45:33;6.20;;;0.75;;
66421;SDS011;53228;51.380;0.098;2023-12-22T10:48:01;5.32;;;0.50;;
66421;SDS011;53228;51.380;0.098;2023-12-22T10:50:29;3.80;;;0.57;;
66421;SDS011;53228;51.380;0.098;2023-12-22T10:52:56;5.35;;;1.00;;
66421;SDS011;53228;51.380;0.098;2023-12-22T10:55:24;2.92;;;0.65;;
66421;SDS011;53228;51.380;0.098;2023-12-22T10:57:52;4.28;;;0.52;;
66421;SDS011;53228;51.380;0.098;2023-12-22T11:00:21;1.27;;;0.50;;
66421;SDS011;53228;51.380;0.098;2023-12-22T11:02:50;4.28;;;0.43;;
66421;SDS011;53228;51.380;0.098;2023-12-22T11:05:27;5.97;;;0.98;;
66421;SDS011;53228;51.380;0.098;2023-12-22T11:07:55;1.77;;;0.85;;
66421;SDS011;53228;51.380;0.098;2023-12-22T11:10:30;5.68;;;1.13;;
66421;SDS011;53228;51.380;0.098;2023-12-22T11:12:59;8.73;;;0.90;;
66421;SDS011;53228;51.380;0.098;2023-12-22T11:15:29;3.85;;;0.43;;
66421;SDS011;53228;51.380;0.098;2023-12-22T11:17:59;5.10;;;0.57;;
66421;SDS011;53228;51.380;0.098;2023-12-22T11:20:29;4.68;;;0.70;;
66421;SDS011;53228;51.380;0.098;2023-12-22T11:22:59;2.80;;;0.80;;
66421;SDS011;53228;51.380;0.098;2023-12-22T11:25:29;4.50;;;0.75;;
66421;SDS011;53228;51.380;0.098;2023-12-22T11:27:58;1.95;;;0.70;;
66421;SDS011;53228;51.380;0.098;2023-12-22T11:30:27;1.80;;;0.52;;
66421;SDS011;53228;51.380;0.098;2023-12-22T11:32:56;5.40;;;1.02;;
66421;SDS011;53228;51.380;0.098;2023-12-22T11:35:25;6.57;;;1.45;;
66421;SDS011;53228;51.380;0.098;2023-12-22T11:38:00;3.22;;;1.15;;
66421;SDS011;53228;51.380;0.098;2023-12-22T11:40:30;3.22;;;0.70;;
66421;SDS011;53228;51.380;0.098;2023-12-22T11:42:58;6.03;;;0.90;;
66421;SDS011;53228;51.380;0.098;2023-12-22T11:45:29;10.10;;;0.93;;
66421;SDS011;53228;51.380;0.098;2023-12-22T11:48:10;4.00;;;0.80;;
66421;SDS011;53228;51.380;0.098;2023-12-22T11:50:38;1.27;;;0.50;;
66421;SDS011;53228;51.380;0.098;2023-12-22T11:55:59;6.28;;;1.40;;
66421;SDS011;53228;51.380;0.098;2023-12-22T12:03:37;1.70;;;0.47;;
66421;SDS011;53228;51.380;0.098;2023-12-22T12:06:09;2.15;;;0.88;;
66421;SDS011;53228;51.380;0.098;2023-12-22T12:08:38;1.60;;;0.57;;
66421;SDS011;53228;51.380;0.098;2023-12-22T12:11:06;1.02;;;0.70;;
66421;SDS011;53228;51.380;0.098;2023-12-22T12:13:34;1.27;;;0.40;;
66421;SDS011;53228;51.380;0.098;2023-12-22T12:16:08;2.17;;;0.30;;
66421;SDS011;53228;51.380;0.098;2023-12-22T12:18:37;3.58;;;0.70;;
66421;SDS011;53228;51.380;0.098;2023-12-22T12:21:08;2.03;;;0.40;;
66421;SDS011;53228;51.380;0.098;2023-12-22T12:23:38;0.90;;;0.28;;
66421;SDS011;53228;51.380;0.098;2023-12-22T12:26:08;6.05;;;0.90;;
66421;SDS011;53228;51.380;0.098;2023-12-22T12:28:36;11.93;;;4.10;;
66421;SDS011;53228;51.380;0.098;2023-12-22T12:31:05;9.15;;;3.40;;
66421;SDS011;53228;51.380;0.098;2023-12-22T12:33:35;3.88;;;1.13;;
66421;SDS011;53228;51.380;0.098;2023-12-22T12:36:03;4.30;;;0.80;;
66421;SDS011;53228;51.380;0.098;2023-12-22T12:41:29;1.92;;;0.43;;
66421;SDS011;53228;51.380;0.098;2023-12-22T12:44:04;4.75;;;0.40;;
66421;SDS011;53228;51.380;0.098;2023-12-22T12:46:40;2.70;;;0.45;;
66421;SDS011;53228;51.380;0.098;2023-12-22T12:49:11;2.92;;;0.90;;
66421;SDS011;53228;51.380;0.098;2023-12-22T12:51:41;1.88;;;0.45;;
66421;SDS011;53228;51.380;0.098;2023-12-22T12:54:10;1.50;;;0.40;;
66421;SDS011;53228;51.380;0.098;2023-12-22T12:59:11;2.03;;;0.40;;
66421;SDS011;53228;51.380;0.098;2023-12-22T13:01:41;4.38;;;0.65;;
66421;SDS011;53228;51.380;0.098;2023-12-22T13:04:10;5.40;;;0.40;;
66421;SDS011;53228;51.380;0.098;2023-12-22T13:09:13;6.53;;;0.85;;
66421;SDS011;53228;51.380;0.098;2023-12-22T13:11:42;7.00;;;0.70;;
66421;SDS011;53228;51.380;0.098;2023-12-22T13:14:10;4.82;;;0.45;;
66421;SDS011;53228;51.380;0.098;2023-12-22T13:16:39;3.88;;;0.47;;
66421;SDS011;53228;51.380;0.098;2023-12-22T13:19:07;6.10;;;0.80;;
66421;SDS011;53228;51.380;0.098;2023-12-22T13:21:35;6.45;;;0.88;;
66421;SDS011;53228;51.380;0.098;2023-12-22T13:24:10;6.40;;;1.20;;
66421;SDS011;53228;51.380;0.098;2023-12-22T13:26:43;4.47;;;1.10;;
66421;SDS011;53228;51.380;0.098;2023-12-22T13:29:12;6.72;;;1.20;;
66421;SDS011;53228;51.380;0.098;2023-12-22T13:31:40;3.65;;;0.85;;
66421;SDS011;53228;51.380;0.098;2023-12-22T13:34:10;4.03;;;0.52;;
66421;SDS011;53228;51.380;0.098;2023-12-22T13:36:39;4.18;;;0.77;;
66421;SDS011;53228;51.380;0.098;2023-12-22T13:39:09;4.55;;;0.40;;
66421;SDS011;53228;51.380;0.098;2023-12-22T13:41:39;7.10;;;0.80;;
66421;SDS011;53228;51.380;0.098;2023-12-22T13:44:12;6.30;;;1.00;;
66421;SDS011;53228;51.380;0.098;2023-12-22T13:46:40;4.80;;;0.75;;
66421;SDS011;53228;51.380;0.098;2023-12-22T13:49:10;3.60;;;0.95;;
66421;SDS011;53228;51.380;0.098;2023-12-22T13:51:44;3.70;;;0.60;;
66421;SDS011;53228;51.380;0.098;2023-12-22T13:54:12;3.55;;;0.70;;
66421;SDS011;53228;51.380;0.098;2023-12-22T13:56:40;4.38;;;0.80;;
66421;SDS011;53228;51.380;0.098;2023-12-22T13:59:09;4.25;;;0.70;;
66421;SDS011;53228;51.380;0.098;2023-12-22T14:01:38;3.58;;;0.73;;
66421;SDS011;53228;51.380;0.098;2023-12-22T14:04:07;5.57;;;0.70;;
66421;SDS011;53228;51.380;0.098;2023-12-22T14:06:37;7.35;;;0.52;;
66421;SDS011;53228;51.380;0.098;2023-12-22T14:09:06;7.07;;;0.90;;
66421;SDS011;53228;51.380;0.098;2023-12-22T14:11:33;3.15;;;0.82;;
66421;SDS011;53228;51.380;0.098;2023-12-22T14:14:01;4.03;;;0.90;;
66421;SDS011;53228;51.380;0.098;2023-12-22T14:16:29;10.00;;;1.25;;
66421;SDS011;53228;51.380;0.098;2023-12-22T14:18:56;7.15;;;0.90;;
66421;SDS011;53228;51.380;0.098;2023-12-22T14:21:24;3.33;;;1.02;;
66421;SDS011;53228;51.380;0.098;2023-12-22T14:23:52;3.70;;;0.68;;
66421;SDS011;53228;51.380;0.098;2023-12-22T14:26:20;2.22;;;0.90;;
66421;SDS011;53228;51.380;0.098;2023-12-22T14:28:48;5.68;;;0.82;;
66421;SDS011;53228;51.380;0.098;2023-12-22T14:31:18;3.55;;;1.02;;
66421;SDS011;53228;51.380;0.098;2023-12-22T14:33:48;5.90;;;0.85;;
66421;SDS011;53228;51.380;0.098;2023-12-22T14:36:16;7.32;;;0.82;;
66421;SDS011;53228;51.380;0.098;2023-12-22T14:38:44;3.28;;;0.70;;
66421;SDS011;53228;51.380;0.098;2023-12-22T14:41:11;4.60;;;0.50;;
66421;SDS011;53228;51.380;0.098;2023-12-22T14:43:39;1.95;;;0.73;;
66421;SDS011;53228;51.380;0.098;2023-12-22T14:46:07;2.78;;;0.70;;
66421;SDS011;53228;51.380;0.098;2023-12-22T14:48:35;5.97;;;1.55;;
66421;SDS011;53228;51.380;0.098;2023-12-22T14:51:03;2.65;;;0.82;;
66421;SDS011;53228;51.380;0.098;2023-12-22T14:53:31;5.13;;;1.35;;
66421;SDS011;53228;51.380;0.098;2023-12-22T14:55:58;7.90;;;1.50;;
66421;SDS011;53228;51.380;0.098;2023-12-22T14:58:26;2.88;;;0.65;;
66421;SDS011;53228;51.380;0.098;2023-12-22T15:00:54;1.85;;;0.47;;
66421;SDS011;53228;51.380;0.098;2023-12-22T15:03:22;4.13;;;1.10;;
66421;SDS011;53228;51.380;0.098;2023-12-22T15:05:49;2.05;;;0.30;;
66421;SDS011;53228;51.380;0.098;2023-12-22T15:08:18;3.13;;;0.80;;
66421;SDS011;53228;51.380;0.098;2023-12-22T15:10:45;5.05;;;0.90;;
66421;SDS011;53228;51.380;0.098;2023-12-22T15:13:13;1.27;;;0.60;;
66421;SDS011;53228;51.380;0.098;2023-12-22T15:15:41;4.22;;;1.13;;
66421;SDS011;53228;51.380;0.098;2023-12-22T15:18:08;4.30;;;0.70;;
66421;SDS011;53228;51.380;0.098;2023-12-22T15:20:39;3.03;;;0.90;;
66421;SDS011;53228;51.380;0.098;2023-12-22T15:23:07;5.00;;;0.60;;